createdAt,value
2018-09-30T00:01:13.092Z,7.10
2018-09-30T00:03:44.692Z,7.63
2018-09-30T00:06:15.987Z,7.43
2018-09-30T00:08:47.168Z,7.60
2018-09-30T00:11:18.229Z,7.80
2018-09-30T00:13:49.678Z,8.10
2018-09-30T00:16:20.788Z,8.37
2018-09-30T00:18:51.966Z,8.30
2018-09-30T00:21:23.414Z,8.20
2018-09-30T00:26:06.646Z,8.20
2018-09-30T00:28:37.851Z,8.40
2018-09-30T00:31:08.939Z,8.23
2018-09-30T00:34:42.909Z,8.47
2018-09-30T00:37:13.916Z,8.80
2018-09-30T00:39:44.947Z,8.40
2018-09-30T00:42:16.308Z,8.80
2018-09-30T00:44:47.606Z,9.40
2018-09-30T00:47:18.896Z,8.67
2018-09-30T00:49:49.934Z,8.47
2018-09-30T00:52:21.085Z,8.60
2018-09-30T00:54:52.081Z,8.23
2018-09-30T00:57:23.270Z,8.03
2018-09-30T00:59:54.306Z,8.13
2018-09-30T01:02:25.695Z,8.00
2018-09-30T01:04:56.848Z,7.80
2018-09-30T01:07:28.039Z,7.50
2018-09-30T01:09:59.702Z,7.50
2018-09-30T01:12:31.010Z,7.57
2018-09-30T01:15:02.990Z,8.07
2018-09-30T01:17:34.176Z,7.60
2018-09-30T01:20:05.451Z,7.60
2018-09-30T01:22:36.751Z,7.83
2018-09-30T01:25:07.791Z,7.43
2018-09-30T01:27:39.212Z,7.60
2018-09-30T01:30:10.387Z,7.40
2018-09-30T01:32:42.009Z,7.90
2018-09-30T01:35:13.314Z,8.80
2018-09-30T01:37:44.309Z,7.97
2018-09-30T01:40:15.371Z,7.93
2018-09-30T01:42:46.689Z,8.00
2018-09-30T01:45:18.305Z,8.03
2018-09-30T01:47:49.452Z,9.00
2018-09-30T01:50:20.672Z,8.80
2018-09-30T01:52:55.624Z,8.93
2018-09-30T01:55:26.796Z,8.13
2018-09-30T01:57:58.173Z,8.63
2018-09-30T02:00:29.166Z,9.23
2018-09-30T02:03:00.379Z,9.47
2018-09-30T02:05:31.588Z,9.10
2018-09-30T02:08:02.938Z,9.47
2018-09-30T02:10:33.927Z,9.33
2018-09-30T02:13:05.133Z,9.43
2018-09-30T02:15:36.169Z,9.00
2018-09-30T02:18:07.454Z,9.73
2018-09-30T02:20:38.508Z,9.17
2018-09-30T02:23:09.689Z,8.87
2018-09-30T02:25:40.870Z,8.73
2018-09-30T02:28:12.043Z,8.73
2018-09-30T02:30:43.448Z,8.30
2018-09-30T02:33:14.650Z,8.00
2018-09-30T02:35:45.835Z,7.73
2018-09-30T02:38:18.613Z,7.80
2018-09-30T02:40:50.104Z,8.00
2018-09-30T02:43:21.663Z,7.57
2018-09-30T02:45:53.095Z,8.00
2018-09-30T02:48:24.630Z,7.33
2018-09-30T02:50:55.710Z,7.90
2018-09-30T02:53:33.864Z,7.70
2018-09-30T02:56:05.019Z,7.87
2018-09-30T02:58:36.476Z,7.80
2018-09-30T03:01:07.867Z,6.90
2018-09-30T03:03:39.209Z,7.53
2018-09-30T03:08:17.063Z,6.80
2018-09-30T03:10:48.228Z,6.97
2018-09-30T03:13:19.836Z,7.30
2018-09-30T03:15:51.028Z,7.00
2018-09-30T03:18:22.179Z,7.30
2018-09-30T03:20:53.578Z,7.43
2018-09-30T03:23:24.504Z,7.80
2018-09-30T03:25:55.953Z,7.40
2018-09-30T03:28:27.305Z,6.97
2018-09-30T03:30:58.547Z,7.03
2018-09-30T03:33:30.478Z,6.93
2018-09-30T03:36:01.664Z,7.00
2018-09-30T03:38:32.668Z,7.10
2018-09-30T03:41:04.149Z,6.63
2018-09-30T03:43:35.414Z,7.03
2018-09-30T03:46:06.894Z,6.80
2018-09-30T03:48:38.244Z,6.77
2018-09-30T03:51:09.607Z,6.50
2018-09-30T03:53:40.588Z,6.90
2018-09-30T03:56:11.831Z,6.67
2018-09-30T03:58:43.147Z,6.57
2018-09-30T04:01:17.289Z,6.07
2018-09-30T04:03:48.340Z,6.40
2018-09-30T04:06:19.708Z,6.20
2018-09-30T04:08:50.733Z,5.50
2018-09-30T04:11:21.883Z,5.63
2018-09-30T04:13:53.120Z,5.60
2018-09-30T04:16:24.285Z,5.57
2018-09-30T04:18:56.159Z,5.53
2018-09-30T04:21:27.439Z,5.50
2018-09-30T04:24:16.725Z,5.70
2018-09-30T04:26:48.672Z,6.33
2018-09-30T04:29:19.920Z,6.30
2018-09-30T04:31:51.299Z,7.03
2018-09-30T04:34:23.132Z,7.20
2018-09-30T04:36:54.470Z,6.77
2018-09-30T04:39:25.620Z,7.17
2018-09-30T04:41:56.807Z,7.47
2018-09-30T04:44:28.044Z,7.03
2018-09-30T04:46:59.214Z,7.67
2018-09-30T04:49:30.400Z,7.27
2018-09-30T04:52:01.793Z,7.20
2018-09-30T04:54:32.991Z,7.50
2018-09-30T04:57:04.038Z,7.23
2018-09-30T04:59:35.484Z,7.70
2018-09-30T05:02:06.737Z,7.53
2018-09-30T05:04:38.608Z,7.30
2018-09-30T05:07:09.944Z,7.77
2018-09-30T05:09:40.929Z,7.20
2018-09-30T05:12:12.287Z,7.37
2018-09-30T05:14:43.363Z,7.10
2018-09-30T05:17:14.506Z,7.37
2018-09-30T05:19:45.752Z,7.70
2018-09-30T05:22:17.106Z,7.67
2018-09-30T05:24:48.509Z,7.37
2018-09-30T05:27:26.010Z,7.33
2018-09-30T05:29:57.182Z,7.90
2018-09-30T05:32:28.531Z,7.63
2018-09-30T05:34:59.994Z,7.70
2018-09-30T05:37:31.131Z,7.80
2018-09-30T05:40:02.482Z,7.50
2018-09-30T05:42:33.524Z,8.50
2018-09-30T05:45:04.976Z,8.10
2018-09-30T05:47:36.282Z,9.00
2018-09-30T05:50:07.469Z,8.97
2018-09-30T05:52:38.470Z,9.10
2018-09-30T05:55:09.509Z,8.67
2018-09-30T05:57:40.973Z,8.63
2018-09-30T06:00:12.183Z,9.20
2018-09-30T06:02:43.696Z,9.33
2018-09-30T06:05:15.017Z,8.93
2018-09-30T06:07:46.106Z,9.50
2018-09-30T06:10:17.401Z,9.00
2018-09-30T06:12:48.852Z,9.07
2018-09-30T06:15:20.456Z,8.73
2018-09-30T06:17:51.589Z,9.33
2018-09-30T06:20:23.044Z,8.67
2018-09-30T06:22:54.148Z,8.43
2018-09-30T06:25:25.326Z,8.70
2018-09-30T06:27:56.339Z,8.60
2018-09-30T06:30:27.779Z,9.33
2018-09-30T06:32:58.928Z,8.67
2018-09-30T06:35:30.131Z,9.30
2018-09-30T06:38:01.299Z,8.77
2018-09-30T06:40:32.681Z,9.20
2018-09-30T06:43:03.663Z,9.20
2018-09-30T06:45:35.056Z,8.70
2018-09-30T06:48:06.083Z,8.70
2018-09-30T06:50:37.528Z,9.30
2018-09-30T06:53:08.629Z,8.63
2018-09-30T06:55:39.650Z,9.07
2018-09-30T06:58:11.295Z,9.07
2018-09-30T07:00:42.984Z,9.37
2018-09-30T07:03:14.178Z,9.20
2018-09-30T07:05:47.124Z,8.77
2018-09-30T07:08:18.360Z,8.97
2018-09-30T07:10:49.793Z,9.20
2018-09-30T07:13:20.924Z,8.97
2018-09-30T07:15:52.219Z,9.27
2018-09-30T07:18:23.316Z,9.07
2018-09-30T07:20:54.292Z,9.20
2018-09-30T07:23:25.520Z,9.03
2018-09-30T07:25:56.896Z,9.00
2018-09-30T07:28:28.095Z,9.17
2018-09-30T07:30:59.557Z,8.93
2018-09-30T07:33:31.300Z,9.50
2018-09-30T07:36:02.414Z,9.40
2018-09-30T07:38:33.433Z,9.00
2018-09-30T07:41:05.086Z,9.30
2018-09-30T07:43:36.700Z,9.43
2018-09-30T07:46:08.288Z,9.27
2018-09-30T07:48:39.389Z,8.83
2018-09-30T07:51:10.572Z,8.60
2018-09-30T07:53:42.040Z,8.60
2018-09-30T07:56:14.019Z,8.83
2018-09-30T07:58:45.320Z,9.20
2018-09-30T08:01:16.587Z,9.07
2018-09-30T08:03:48.338Z,9.07
2018-09-30T08:06:21.160Z,8.73
2018-09-30T08:08:52.256Z,8.53
2018-09-30T08:11:23.461Z,8.27
2018-09-30T08:13:54.922Z,8.93
2018-09-30T08:16:26.227Z,8.47
2018-09-30T08:23:46.635Z,8.30
2018-09-30T08:26:18.099Z,8.50
2018-09-30T08:28:49.691Z,9.07
2018-09-30T08:31:21.259Z,8.67
2018-09-30T08:33:52.554Z,8.40
2018-09-30T08:36:23.572Z,8.30
2018-09-30T08:38:54.741Z,8.43
2018-09-30T08:41:25.966Z,8.60
2018-09-30T08:43:57.183Z,7.97
2018-09-30T08:46:28.580Z,7.83
2018-09-30T08:48:59.940Z,7.73
2018-09-30T08:51:31.344Z,8.27
2018-09-30T08:54:02.697Z,8.60
2018-09-30T08:56:33.751Z,8.90
2018-09-30T08:59:05.203Z,8.90
2018-09-30T09:01:36.510Z,8.30
2018-09-30T09:04:08.330Z,8.90
2018-09-30T09:06:39.451Z,9.00
2018-09-30T09:09:13.283Z,8.80
2018-09-30T09:11:44.507Z,8.97
2018-09-30T09:14:15.572Z,8.17
2018-09-30T09:16:46.743Z,7.50
2018-09-30T09:19:17.939Z,8.13
2018-09-30T09:21:49.150Z,8.33
2018-09-30T09:24:20.176Z,8.43
2018-09-30T09:26:51.524Z,8.60
2018-09-30T09:29:22.749Z,9.47
2018-09-30T09:31:54.172Z,8.70
2018-09-30T09:34:25.638Z,8.07
2018-09-30T09:36:56.889Z,7.73
2018-09-30T09:39:28.319Z,7.47
2018-09-30T09:42:00.287Z,8.77
2018-09-30T09:44:31.436Z,8.37
2018-09-30T09:47:02.487Z,8.87
2018-09-30T09:49:33.892Z,8.10
2018-09-30T09:52:05.268Z,8.60
2018-09-30T09:54:36.683Z,8.80
2018-09-30T09:57:07.821Z,8.27
2018-09-30T09:59:38.809Z,7.93
2018-09-30T10:02:10.459Z,7.60
2018-09-30T10:04:41.875Z,7.80
2018-09-30T10:07:13.016Z,7.70
2018-09-30T10:09:44.436Z,7.80
2018-09-30T10:12:16.064Z,7.60
2018-09-30T10:14:47.315Z,8.03
2018-09-30T10:17:18.321Z,7.97
2018-09-30T10:19:49.599Z,7.17
2018-09-30T10:22:20.949Z,7.23
2018-09-30T10:24:52.089Z,7.53
2018-09-30T10:27:23.095Z,7.10
2018-09-30T10:29:54.344Z,6.93
2018-09-30T10:32:25.936Z,7.10
2018-09-30T10:34:57.531Z,6.97
2018-09-30T10:37:28.835Z,7.43
2018-09-30T10:40:00.268Z,6.87
2018-09-30T10:42:31.906Z,6.57
2018-09-30T10:45:03.056Z,7.43
2018-09-30T10:47:34.661Z,7.40
2018-09-30T10:50:06.153Z,7.03
2018-09-30T10:52:37.348Z,7.40
2018-09-30T10:55:08.709Z,6.83
2018-09-30T10:57:40.163Z,6.57
2018-09-30T11:00:11.537Z,6.80
2018-09-30T11:02:43.015Z,6.80
2018-09-30T11:05:14.596Z,6.47
2018-09-30T11:07:45.714Z,7.00
2018-09-30T11:10:17.088Z,5.87
2018-09-30T11:12:48.278Z,6.00
2018-09-30T11:15:19.678Z,6.07
2018-09-30T11:17:51.030Z,5.70
2018-09-30T11:20:22.280Z,5.47
2018-09-30T11:22:53.763Z,5.80
2018-09-30T11:25:25.027Z,5.50
2018-09-30T11:27:56.284Z,5.63
2018-09-30T11:30:27.995Z,6.03
2018-09-30T11:32:59.226Z,5.37
2018-09-30T11:35:30.538Z,5.67
2018-09-30T11:38:01.587Z,5.63
2018-09-30T11:40:32.935Z,5.63
2018-09-30T11:43:04.132Z,5.30
2018-09-30T11:45:35.327Z,5.37
2018-09-30T11:48:06.419Z,5.10
2018-09-30T11:50:38.017Z,5.37
2018-09-30T11:53:09.164Z,4.93
2018-09-30T11:55:40.343Z,5.27
2018-09-30T11:58:11.719Z,5.50
2018-09-30T12:00:43.106Z,4.87
2018-09-30T12:03:14.307Z,6.17
2018-09-30T12:05:45.705Z,4.70
2018-09-30T12:08:16.859Z,4.50
2018-09-30T12:10:48.233Z,5.37
2018-09-30T12:13:19.446Z,4.40
2018-09-30T12:15:50.931Z,5.00
2018-09-30T12:18:22.482Z,4.50
2018-09-30T12:20:53.596Z,4.30
2018-09-30T12:23:24.772Z,4.80
2018-09-30T12:25:56.025Z,4.73
2018-09-30T12:28:27.642Z,4.73
2018-09-30T12:30:59.297Z,4.80
2018-09-30T12:33:30.544Z,4.63
2018-09-30T12:36:02.046Z,4.23
2018-09-30T12:38:34.166Z,4.40
2018-09-30T12:41:06.329Z,4.60
2018-09-30T12:43:38.484Z,3.93
2018-09-30T12:46:09.781Z,4.60
2018-09-30T12:48:41.584Z,4.20
2018-09-30T12:51:12.834Z,4.87
2018-09-30T12:53:43.996Z,4.07
2018-09-30T12:56:15.188Z,4.30
2018-09-30T12:58:46.424Z,4.03
2018-09-30T13:01:18.452Z,4.00
2018-09-30T13:03:49.740Z,3.93
2018-09-30T13:06:20.879Z,4.50
2018-09-30T13:08:52.122Z,4.27
2018-09-30T13:11:23.244Z,4.50
2018-09-30T13:13:54.310Z,4.13
2018-09-30T13:16:25.522Z,4.00
2018-09-30T13:18:56.775Z,4.13
2018-09-30T13:21:28.118Z,4.80
2018-09-30T13:23:59.576Z,4.33
2018-09-30T13:26:30.699Z,4.40
2018-09-30T13:29:02.065Z,4.30
2018-09-30T13:31:33.242Z,4.40
2018-09-30T13:34:04.488Z,4.33
2018-09-30T13:36:35.696Z,4.20
2018-09-30T13:39:10.208Z,3.80
2018-09-30T13:41:41.735Z,3.67
2018-09-30T13:44:13.949Z,4.00
2018-09-30T13:46:45.144Z,3.80
2018-09-30T13:49:16.334Z,3.57
2018-09-30T13:51:47.322Z,3.50
2018-09-30T13:54:18.312Z,3.50
2018-09-30T13:56:49.344Z,3.60
2018-09-30T13:59:20.500Z,3.50
2018-09-30T14:01:52.099Z,3.67
2018-09-30T14:04:23.443Z,3.50
2018-09-30T14:06:54.797Z,3.50
2018-09-30T14:09:26.077Z,3.80
2018-09-30T14:11:57.284Z,3.60
2018-09-30T14:14:28.480Z,3.50
2018-09-30T14:16:59.457Z,3.60
2018-09-30T14:19:30.612Z,3.47
2018-09-30T14:22:01.619Z,3.20
2018-09-30T14:24:33.008Z,3.33
2018-09-30T14:27:04.291Z,3.60
2018-09-30T14:29:35.563Z,3.50
2018-09-30T14:32:06.658Z,3.27
2018-09-30T14:34:38.006Z,3.30
2018-09-30T14:37:09.257Z,3.33
2018-09-30T14:39:40.351Z,3.27
2018-09-30T14:42:11.832Z,2.90
2018-09-30T14:44:43.110Z,3.00
2018-09-30T14:47:14.144Z,3.40
2018-09-30T14:49:45.336Z,3.30
2018-09-30T14:52:16.786Z,3.43
2018-09-30T14:54:48.062Z,3.00
2018-09-30T14:57:19.314Z,3.10
2018-09-30T14:59:50.729Z,3.07
2018-09-30T15:02:22.176Z,3.40
2018-09-30T15:04:53.360Z,3.00
2018-09-30T15:07:25.066Z,4.23
2018-09-30T15:09:56.275Z,3.67
2018-09-30T15:12:27.612Z,3.03
2018-09-30T15:14:58.855Z,3.23
2018-09-30T15:17:30.271Z,3.10
2018-09-30T15:20:01.555Z,2.70
2018-09-30T15:22:33.008Z,3.00
2018-09-30T15:25:04.316Z,3.00
2018-09-30T15:27:35.362Z,2.83
2018-09-30T15:30:07.208Z,2.73
2018-09-30T15:32:38.811Z,2.50
2018-09-30T15:39:57.809Z,2.87
2018-09-30T15:42:28.917Z,3.13
2018-09-30T15:45:00.092Z,2.80
2018-09-30T15:47:31.411Z,2.47
2018-09-30T15:50:02.724Z,2.70
2018-09-30T15:52:34.554Z,2.90
2018-09-30T15:55:06.008Z,2.97
2018-09-30T15:57:37.251Z,3.50
2018-09-30T16:00:08.342Z,3.00
2018-09-30T16:02:39.624Z,2.57
2018-09-30T16:05:10.685Z,2.80
2018-09-30T16:07:41.823Z,2.77
2018-09-30T16:10:12.828Z,2.67
2018-09-30T16:12:43.814Z,2.80
2018-09-30T16:15:14.827Z,2.77
2018-09-30T16:17:46.575Z,3.00
2018-09-30T16:20:17.964Z,2.90
2018-09-30T16:22:48.994Z,2.70
2018-09-30T16:25:20.651Z,3.00
2018-09-30T16:27:56.777Z,2.60
2018-09-30T16:30:35.908Z,3.10
2018-09-30T16:33:20.197Z,2.97
2018-09-30T16:35:54.477Z,3.03
2018-09-30T16:38:25.712Z,3.10
2018-09-30T16:40:56.872Z,3.20
2018-09-30T16:43:28.254Z,3.00
2018-09-30T16:45:59.672Z,3.10
2018-09-30T16:48:31.166Z,2.90
2018-09-30T16:51:02.218Z,3.07
2018-09-30T16:53:33.547Z,3.20
2018-09-30T16:56:04.763Z,3.47
2018-09-30T16:58:35.734Z,3.50
2018-09-30T17:01:07.083Z,3.40
2018-09-30T17:03:38.808Z,3.20
2018-09-30T17:06:09.903Z,3.47
2018-09-30T17:08:41.571Z,3.63
2018-09-30T17:11:12.700Z,3.53
2018-09-30T17:13:43.894Z,3.53
2018-09-30T17:16:14.873Z,4.00
2018-09-30T17:18:45.984Z,3.70
2018-09-30T17:21:17.546Z,4.00
2018-09-30T17:23:49.124Z,4.00
2018-09-30T17:26:20.237Z,3.83
2018-09-30T17:28:51.426Z,3.87
2018-09-30T17:31:22.663Z,3.87
2018-09-30T17:33:53.864Z,4.30
2018-09-30T17:36:25.028Z,4.30
2018-09-30T17:38:56.463Z,4.43
2018-09-30T17:41:27.764Z,3.93
2018-09-30T17:43:59.017Z,4.20
2018-09-30T17:46:30.151Z,4.03
2018-09-30T17:49:01.504Z,4.50
2018-09-30T17:51:32.757Z,4.70
2018-09-30T17:54:04.028Z,4.40
2018-09-30T17:56:35.132Z,4.40
2018-09-30T17:59:06.191Z,4.50
2018-09-30T18:01:37.519Z,4.83
2018-09-30T18:04:08.852Z,3.93
2018-09-30T18:06:40.376Z,3.83
2018-09-30T18:09:12.446Z,4.07
2018-09-30T18:11:43.439Z,4.00
2018-09-30T18:14:14.738Z,4.80
2018-09-30T18:16:46.337Z,4.77
2018-09-30T18:19:17.980Z,3.83
2018-09-30T18:21:49.023Z,3.67
2018-09-30T18:24:20.185Z,4.80
2018-09-30T18:26:51.172Z,3.90
2018-09-30T18:29:22.375Z,3.80
2018-09-30T18:31:53.602Z,4.90
2018-09-30T18:34:24.808Z,5.23
2018-09-30T18:36:55.751Z,4.90
2018-09-30T18:39:27.199Z,6.30
2018-09-30T18:41:58.545Z,5.13
2018-09-30T18:44:30.002Z,4.13
2018-09-30T18:47:01.313Z,4.67
2018-09-30T18:49:32.387Z,5.23
2018-09-30T18:52:03.984Z,4.20
2018-09-30T18:54:35.564Z,4.53
2018-09-30T18:57:06.731Z,3.83
2018-09-30T18:59:38.179Z,3.40
2018-09-30T19:02:09.480Z,3.77
2018-09-30T19:04:41.107Z,3.23
2018-09-30T19:07:12.240Z,3.70
2018-09-30T19:09:43.427Z,3.40
2018-09-30T19:12:14.511Z,3.57
2018-09-30T19:14:45.799Z,3.40
2018-09-30T19:17:17.683Z,3.50
2018-09-30T19:19:49.152Z,4.33
2018-09-30T19:22:20.576Z,4.00
2018-09-30T19:24:51.786Z,3.53
2018-09-30T19:27:22.956Z,3.90
2018-09-30T19:29:54.817Z,3.60
2018-09-30T19:32:26.210Z,3.70
2018-09-30T19:34:57.327Z,3.73
2018-09-30T19:37:28.569Z,3.40
2018-09-30T19:39:59.768Z,4.33
2018-09-30T19:42:30.883Z,3.80
2018-09-30T19:45:02.158Z,4.10
2018-09-30T19:47:33.458Z,3.40
2018-09-30T19:50:04.967Z,3.70
2018-09-30T19:52:36.251Z,3.60
2018-09-30T19:55:07.487Z,3.63
2018-09-30T19:57:38.818Z,3.73
2018-09-30T20:00:09.860Z,3.20
2018-09-30T20:02:41.263Z,2.80
2018-09-30T20:05:12.505Z,2.60
2018-09-30T20:07:43.749Z,2.40
2018-09-30T20:10:14.795Z,2.47
2018-09-30T20:12:46.450Z,2.50
2018-09-30T20:15:17.581Z,2.23
2018-09-30T20:17:48.925Z,2.40
2018-09-30T20:20:20.451Z,2.20
2018-09-30T20:22:51.722Z,2.33
2018-09-30T20:25:23.136Z,2.00
2018-09-30T20:27:54.323Z,2.00
2018-09-30T20:30:25.690Z,2.03
2018-09-30T20:32:56.708Z,2.17
2018-09-30T20:35:28.171Z,2.20
2018-09-30T20:37:59.308Z,2.13
2018-09-30T20:40:30.267Z,2.43
2018-09-30T20:43:01.287Z,2.40
2018-09-30T20:45:32.229Z,2.20
2018-09-30T20:48:03.442Z,2.13
2018-09-30T20:50:34.856Z,2.30
2018-09-30T20:53:06.335Z,2.20
2018-09-30T20:55:37.994Z,2.10
2018-09-30T20:58:09.228Z,2.17
2018-09-30T21:00:40.382Z,2.03
2018-09-30T21:03:11.615Z,2.17
2018-09-30T21:06:51.420Z,2.00
2018-09-30T21:09:23.796Z,2.10
2018-09-30T21:11:55.160Z,2.20
2018-09-30T21:14:26.560Z,2.00
2018-09-30T21:16:57.760Z,2.07
2018-09-30T21:19:29.048Z,2.30
2018-09-30T21:22:00.137Z,2.30
2018-09-30T21:24:32.081Z,2.23
2018-09-30T21:27:03.308Z,2.20
2018-09-30T21:29:34.507Z,2.40
2018-09-30T21:32:05.938Z,2.30
2018-09-30T21:34:37.048Z,2.43
2018-09-30T21:37:08.596Z,1.90
2018-09-30T21:39:39.828Z,2.43
2018-09-30T21:42:11.299Z,2.40
2018-09-30T21:44:42.873Z,2.10
2018-09-30T21:47:14.239Z,2.27
2018-09-30T21:49:45.887Z,2.07
2018-09-30T21:52:17.446Z,2.07
2018-09-30T21:54:48.715Z,2.00
2018-09-30T21:57:19.905Z,2.07
2018-09-30T21:59:51.119Z,2.20
2018-09-30T22:02:22.124Z,2.00
2018-09-30T22:04:53.091Z,2.27
2018-09-30T22:08:28.027Z,2.23
2018-09-30T22:10:59.301Z,1.90
2018-09-30T22:13:30.390Z,2.30
2018-09-30T22:16:01.560Z,2.30
2018-09-30T22:18:32.602Z,2.10
2018-09-30T22:21:04.000Z,2.70
2018-09-30T22:23:35.245Z,2.20
2018-09-30T22:26:07.626Z,2.30
2018-09-30T22:28:38.895Z,2.23
2018-09-30T22:31:10.005Z,2.17
2018-09-30T22:33:41.079Z,2.30
2018-09-30T22:36:12.295Z,2.30
2018-09-30T22:38:43.519Z,2.50
2018-09-30T22:41:14.888Z,2.13
2018-09-30T22:43:46.044Z,2.47
2018-09-30T22:46:17.262Z,2.03
2018-09-30T22:48:48.733Z,2.20
2018-09-30T22:51:19.870Z,2.20
2018-09-30T22:53:51.223Z,1.93
2018-09-30T22:56:23.085Z,1.90
2018-09-30T22:58:54.688Z,1.90
2018-09-30T23:01:25.815Z,2.00
2018-09-30T23:03:57.960Z,1.80
2018-09-30T23:06:30.047Z,1.83
2018-09-30T23:09:01.359Z,1.90
2018-09-30T23:11:32.509Z,1.90
2018-09-30T23:14:03.534Z,1.90
2018-09-30T23:16:35.101Z,1.90
2018-09-30T23:19:06.191Z,1.87
2018-09-30T23:21:37.496Z,1.90
2018-09-30T23:24:08.828Z,1.87
2018-09-30T23:26:40.337Z,2.00
2018-09-30T23:29:11.528Z,2.27
2018-09-30T23:31:43.098Z,2.27
2018-09-30T23:34:14.393Z,2.10
2018-09-30T23:36:45.631Z,2.00
2018-09-30T23:39:17.036Z,1.83
2018-09-30T23:41:48.229Z,1.90
2018-09-30T23:44:19.568Z,1.90
2018-09-30T23:46:50.613Z,2.07
2018-09-30T23:49:22.269Z,1.70
2018-09-30T23:51:53.537Z,2.10
2018-09-30T23:54:24.603Z,1.90
2018-09-30T23:56:56.021Z,2.17
2018-09-30T23:59:27.152Z,2.07
